Panola, South Carolina
Current Conditions -  °F | °C
As of 10:58 PM on Tuesday 27 Jan 2015 (Local Time) from KSSC Reporting Station
Clear Clear  
Wind Chill: 32°   Ceiling: Unl
Heat Index: 37°   Visibility: 10mi
Dew Point: 24°   Wind: 6mph
Humidity: 59%   Direction: 310°NW
Pressure: 29.99"   Gusts: NA
Location:  33.7445°N, 80.5249°W
Report Text: KSSC 280358Z AUTO 31005KT 10SM CLR 03/M04 A2999 RMK AO2 SLPNO T00281044 $
Loading
Personal Weather Stations






























Interactive Weather Map New forecast layout! Learn more

10-Day Weather Forecast

Advertisements
Track Severe Weather on mobile